This is the latest recevied weather packets stored in our database for station/object IR4UCA. If no packets are shown the sender has not sent any weather packets the latest 1 day(s).
| Time | Temp. | Humidity | Pressure | Rain* | Wind** | Luminosity | Snow |
|---|---|---|---|---|---|---|---|
| 1777970983 | 15° C | 90% | 1013.6 hPa | 0.25 mm | 0.89 m/s, 16° | - | - |
| 1777970383 | 15° C | 89% | 1013.4 hPa | 0 mm | 1.79 m/s, 1° | - | - |
| 1777969786 | 15° C | 90% | 1013.1 hPa | 0 mm | 0.89 m/s, 109° | - | - |
| 1777969185 | 15° C | 89% | 1012.9 hPa | 0.25 mm | 1.34 m/s, 55° | - | - |
| 1777968583 | 15° C | 90% | 1012.9 hPa | 0.25 mm | 1.34 m/s, 76° | - | - |
| 1777967986 | 14.44° C | 90% | 1012.9 hPa | 0.25 mm | 1.34 m/s, 80° | - | - |
| 1777967384 | 14.44° C | 90% | 1012.9 hPa | 0.51 mm | 0 m/s | - | - |
| 1777966783 | 13.89° C | 90% | 1013 hPa | 1.52 mm | 0 m/s | - | - |
| 1777966186 | 13.89° C | 90% | 1013 hPa | 2.54 mm | 0.45 m/s, 55° | - | - |
| 1777965584 | 13.89° C | 90% | 1013.2 hPa | 3.81 mm | 0 m/s | - | - |
| 1777964984 | 13.89° C | 90% | 1013.2 hPa | 5.08 mm | 0 m/s | - | - |
| 1777964386 | 13.89° C | 89% | 1013.3 hPa | 5.84 mm | 0.45 m/s, 54° | - | - |
| 1777963783 | 13.89° C | 89% | 1013.2 hPa | 5.84 mm | 0.45 m/s, 68° | - | - |
| 1777963183 | 13.89° C | 88% | 1013.1 hPa | 4.57 mm | 0 m/s | - | - |
| 1777961383 | 15° C | 83% | 1013.3 hPa | 0.76 mm | 2.24 m/s, 247° | - | - |
| 1777960786 | 15.56° C | 81% | 1013.1 hPa | 0.25 mm | 0.89 m/s, 202° | - | - |
| 1777960183 | 15.56° C | 79% | 1012.9 hPa | 0 mm | 1.34 m/s, 186° | - | - |
| 1777959584 | 15.56° C | 78% | 1012.8 hPa | 0 mm | 1.79 m/s, 169° | - | - |
| 1777958986 | 15.56° C | 78% | 1012.8 hPa | 0 mm | 2.68 m/s, 217° | - | - |
| 1777958383 | 15.56° C | 79% | 1012.8 hPa | 0 mm | 3.13 m/s, 193° | - | - |
| 1777957783 | 15.56° C | 78% | 1012.7 hPa | 0 mm | 2.68 m/s, 193° | - | - |
| 1777957183 | 15.56° C | 76% | 1012.7 hPa | 0 mm | 2.68 m/s, 193° | - | - |
| 1777956583 | 16.11° C | 74% | 1012.5 hPa | 0 mm | 2.68 m/s, 199° | - | - |
| 1777955983 | 16.11° C | 73% | 1012.5 hPa | 0 mm | 2.68 m/s, 179° | - | - |
| 1777955383 | 16.67° C | 71% | 1012.6 hPa | 0 mm | 3.13 m/s, 190° | - | - |
* Rain latest hour (hover to see other rain measurements)
** Current wind speed in m/s (hover to see current wind gust speed)